SBI5319 UNNT-USHH
Flight info
| Callsign | SBI5319 |
|---|---|
| Flight time | N/A |
| Altitude | 34000 |
| Route | DIMID R484 BA R104 KUPON R497 TODES B228 TERDO |
| Aircraft | E170/M-SDE2E3FGHIRWXY/LB1 |
Departure
| Time | N/A |
|---|---|
| Airport | Novosibirsk Tolmachevo Airport (UNNT) |
Arrival
| Time | 2026-04-17 13:39 |
|---|---|
| Airport | Khanty Mansiysk Airport (USHH) |
| Time | Latitude | Longitude | Altitude | Speed | Heading |
|---|---|---|---|---|---|
| 2026-04-17 12:55 | 59.63738 | 75.50171 | 34263 ft | 375 kts | 317° |
| 2026-04-17 12:55 | 59.67319 | 75.43231 | 34265 ft | 376 kts | 317° |
| 2026-04-17 12:56 | 59.71047 | 75.35979 | 34265 ft | 375 kts | 317° |
| 2026-04-17 12:56 | 59.74610 | 75.28426 | 34267 ft | 379 kts | 306° |
| 2026-04-17 12:57 | 59.76834 | 75.18836 | 34255 ft | 384 kts | 298° |
| 2026-04-17 12:57 | 59.78911 | 75.09078 | 34253 ft | 384 kts | 297° |
| 2026-04-17 12:58 | 59.80933 | 74.99252 | 34249 ft | 384 kts | 297° |
| 2026-04-17 12:58 | 59.82931 | 74.89423 | 34257 ft | 384 kts | 297° |
| 2026-04-17 12:59 | 59.84918 | 74.79582 | 34253 ft | 383 kts | 297° |
| 2026-04-17 12:59 | 59.86884 | 74.69796 | 34258 ft | 383 kts | 296° |
| 2026-04-17 13:00 | 59.88854 | 74.59943 | 34253 ft | 383 kts | 296° |
| 2026-04-17 13:00 | 59.90815 | 74.50081 | 34255 ft | 383 kts | 296° |
| 2026-04-17 13:01 | 59.92767 | 74.40217 | 34256 ft | 382 kts | 296° |
| 2026-04-17 13:01 | 59.94697 | 74.30328 | 34247 ft | 382 kts | 296° |
| 2026-04-17 13:02 | 59.96622 | 74.20448 | 34254 ft | 381 kts | 296° |
| 2026-04-17 13:02 | 59.98546 | 74.10579 | 34251 ft | 381 kts | 296° |
| 2026-04-17 13:03 | 60.00466 | 74.00691 | 34245 ft | 382 kts | 296° |
| 2026-04-17 13:03 | 60.02367 | 73.90870 | 34244 ft | 381 kts | 296° |
| 2026-04-17 13:04 | 60.04273 | 73.80963 | 34245 ft | 381 kts | 295° |
| 2026-04-17 13:04 | 60.06168 | 73.71098 | 34241 ft | 381 kts | 295° |
| 2026-04-17 13:05 | 60.08062 | 73.61182 | 34246 ft | 381 kts | 295° |
| 2026-04-17 13:05 | 60.09938 | 73.51262 | 34244 ft | 380 kts | 295° |
| 2026-04-17 13:06 | 60.11817 | 73.41352 | 34241 ft | 380 kts | 295° |
| 2026-04-17 13:06 | 60.13686 | 73.31431 | 34237 ft | 380 kts | 295° |
| 2026-04-17 13:07 | 60.15545 | 73.21499 | 34235 ft | 380 kts | 295° |
| 2026-04-17 13:07 | 60.17391 | 73.11573 | 34234 ft | 380 kts | 295° |
| 2026-04-17 13:08 | 60.18924 | 73.03292 | 34230 ft | 379 kts | 294° |
| 2026-04-17 13:08 | 60.20744 | 72.93341 | 34230 ft | 379 kts | 294° |
| 2026-04-17 13:09 | 60.22565 | 72.83382 | 34221 ft | 379 kts | 294° |
| 2026-04-17 13:09 | 60.24388 | 72.73417 | 34218 ft | 379 kts | 294° |
| 2026-04-17 13:10 | 60.26196 | 72.63470 | 34216 ft | 378 kts | 294° |
| 2026-04-17 13:10 | 60.27982 | 72.53562 | 34217 ft | 378 kts | 294° |
| 2026-04-17 13:11 | 60.29766 | 72.43592 | 34217 ft | 378 kts | 294° |
| 2026-04-17 13:11 | 60.31550 | 72.33606 | 34212 ft | 378 kts | 293° |
| 2026-04-17 13:12 | 60.33326 | 72.23632 | 34208 ft | 378 kts | 293° |
| 2026-04-17 13:12 | 60.34631 | 72.16216 | 33793 ft | 372 kts | 293° |
| 2026-04-17 13:12 | 60.35497 | 72.11300 | 33518 ft | 371 kts | 293° |
| 2026-04-17 13:13 | 60.36368 | 72.06390 | 33237 ft | 372 kts | 293° |
| 2026-04-17 13:13 | 60.37240 | 72.01474 | 32958 ft | 372 kts | 293° |
| 2026-04-17 13:13 | 60.38110 | 71.96544 | 32675 ft | 372 kts | 293° |
| 2026-04-17 13:13 | 60.38975 | 71.91605 | 32409 ft | 372 kts | 293° |
| 2026-04-17 13:14 | 60.39833 | 71.86669 | 32135 ft | 372 kts | 293° |
| 2026-04-17 13:14 | 60.40690 | 71.81733 | 31873 ft | 372 kts | 292° |
| 2026-04-17 13:14 | 60.41532 | 71.76861 | 31608 ft | 371 kts | 292° |
| 2026-04-17 13:14 | 60.42366 | 71.71920 | 31346 ft | 368 kts | 292° |
| 2026-04-17 13:15 | 60.43199 | 71.67043 | 31087 ft | 366 kts | 292° |
| 2026-04-17 13:15 | 60.44032 | 71.62181 | 30827 ft | 364 kts | 292° |
| 2026-04-17 13:15 | 60.44863 | 71.57358 | 30573 ft | 361 kts | 292° |
| 2026-04-17 13:15 | 60.45689 | 71.52562 | 30324 ft | 359 kts | 292° |
| 2026-04-17 13:16 | 60.46506 | 71.47784 | 30034 ft | 358 kts | 292° |
| 2026-04-17 13:16 | 60.47307 | 71.43028 | 29736 ft | 356 kts | 292° |
| 2026-04-17 13:16 | 60.48913 | 71.33551 | 29325 ft | 361 kts | 292° |
| 2026-04-17 13:17 | 60.49717 | 71.28795 | 28883 ft | 353 kts | 292° |
| 2026-04-17 13:17 | 60.50503 | 71.24094 | 28371 ft | 350 kts | 292° |
| 2026-04-17 13:17 | 60.51280 | 71.19437 | 27891 ft | 348 kts | 292° |
| 2026-04-17 13:17 | 60.52054 | 71.14810 | 27446 ft | 345 kts | 292° |
| 2026-04-17 13:18 | 60.52832 | 71.10206 | 26987 ft | 343 kts | 292° |
| 2026-04-17 13:18 | 60.53533 | 71.05986 | 26558 ft | 342 kts | 291° |
| 2026-04-17 13:18 | 60.54291 | 71.01415 | 26115 ft | 340 kts | 291° |
| 2026-04-17 13:18 | 60.55049 | 70.96880 | 25661 ft | 338 kts | 291° |
| 2026-04-17 13:19 | 60.55799 | 70.92363 | 25218 ft | 336 kts | 291° |
| 2026-04-17 13:19 | 60.56538 | 70.87874 | 24762 ft | 334 kts | 291° |
| 2026-04-17 13:19 | 60.57277 | 70.83409 | 24320 ft | 332 kts | 291° |
| 2026-04-17 13:19 | 60.58011 | 70.78965 | 23884 ft | 331 kts | 291° |
| 2026-04-17 13:20 | 60.58738 | 70.74540 | 23416 ft | 329 kts | 291° |
| 2026-04-17 13:20 | 60.59455 | 70.70136 | 22992 ft | 327 kts | 291° |
| 2026-04-17 13:20 | 60.60164 | 70.65748 | 22572 ft | 325 kts | 291° |
| 2026-04-17 13:20 | 60.60877 | 70.61381 | 22119 ft | 324 kts | 291° |
| 2026-04-17 13:21 | 60.61595 | 70.57047 | 21692 ft | 322 kts | 291° |
| 2026-04-17 13:21 | 60.62311 | 70.52726 | 21269 ft | 320 kts | 291° |
| 2026-04-17 13:21 | 60.63061 | 70.48472 | 20841 ft | 317 kts | 296° |
| 2026-04-17 13:21 | 60.64130 | 70.44637 | 20414 ft | 316 kts | 301° |
| 2026-04-17 13:22 | 60.65225 | 70.40774 | 19984 ft | 314 kts | 301° |
| 2026-04-17 13:22 | 60.66339 | 70.36955 | 19578 ft | 312 kts | 301° |
| 2026-04-17 13:22 | 60.67477 | 70.33206 | 19165 ft | 310 kts | 302° |
| 2026-04-17 13:22 | 60.68628 | 70.29486 | 18751 ft | 308 kts | 302° |
| 2026-04-17 13:23 | 60.69778 | 70.25794 | 18327 ft | 307 kts | 302° |
| 2026-04-17 13:23 | 60.70921 | 70.22129 | 17946 ft | 305 kts | 302° |
| 2026-04-17 13:23 | 60.72060 | 70.18475 | 17526 ft | 305 kts | 302° |
| 2026-04-17 13:23 | 60.73200 | 70.14815 | 17121 ft | 305 kts | 302° |
| 2026-04-17 13:24 | 60.74340 | 70.11154 | 16714 ft | 305 kts | 302° |
| 2026-04-17 13:24 | 60.75478 | 70.07485 | 16308 ft | 305 kts | 302° |
| 2026-04-17 13:24 | 60.76616 | 70.03811 | 15893 ft | 305 kts | 302° |
| 2026-04-17 13:24 | 60.77750 | 70.00146 | 15492 ft | 305 kts | 302° |
| 2026-04-17 13:25 | 60.78869 | 69.96522 | 15095 ft | 305 kts | 302° |
| 2026-04-17 13:25 | 60.79990 | 69.92882 | 14670 ft | 296 kts | 302° |
| 2026-04-17 13:25 | 60.80971 | 69.89269 | 14312 ft | 286 kts | 294° |
| 2026-04-17 13:25 | 60.81693 | 69.85536 | 13929 ft | 278 kts | 291° |
| 2026-04-17 13:26 | 60.82376 | 69.81893 | 13554 ft | 269 kts | 292° |
| 2026-04-17 13:26 | 60.83059 | 69.78374 | 13198 ft | 262 kts | 292° |
| 2026-04-17 13:26 | 60.83746 | 69.74938 | 12850 ft | 258 kts | 293° |
| 2026-04-17 13:26 | 60.84433 | 69.71557 | 12525 ft | 257 kts | 293° |
| 2026-04-17 13:27 | 60.85129 | 69.68153 | 12166 ft | 259 kts | 293° |
| 2026-04-17 13:27 | 60.85827 | 69.64747 | 11828 ft | 259 kts | 293° |
| 2026-04-17 13:27 | 60.86526 | 69.61342 | 11484 ft | 258 kts | 292° |
| 2026-04-17 13:27 | 60.87212 | 69.57990 | 11143 ft | 257 kts | 292° |
| 2026-04-17 13:28 | 60.87905 | 69.54605 | 10804 ft | 256 kts | 292° |
| 2026-04-17 13:28 | 60.88586 | 69.51277 | 10453 ft | 251 kts | 292° |
| 2026-04-17 13:28 | 60.89253 | 69.48007 | 10122 ft | 246 kts | 292° |
| 2026-04-17 13:28 | 60.89909 | 69.44784 | 9782 ft | 241 kts | 292° |
| 2026-04-17 13:29 | 60.90551 | 69.41631 | 9481 ft | 237 kts | 292° |
| 2026-04-17 13:29 | 60.91185 | 69.38506 | 9167 ft | 237 kts | 291° |
| 2026-04-17 13:29 | 60.91821 | 69.35369 | 8858 ft | 239 kts | 291° |
| 2026-04-17 13:29 | 60.92461 | 69.32212 | 8534 ft | 240 kts | 291° |
| 2026-04-17 13:30 | 60.93100 | 69.29049 | 8221 ft | 240 kts | 291° |
| 2026-04-17 13:30 | 60.93704 | 69.25855 | 7885 ft | 238 kts | 283° |
| 2026-04-17 13:30 | 60.93802 | 69.22492 | 7588 ft | 237 kts | 262° |
| 2026-04-17 13:30 | 60.93440 | 69.19191 | 7260 ft | 237 kts | 258° |
| 2026-04-17 13:31 | 60.93082 | 69.15894 | 6936 ft | 236 kts | 258° |
| 2026-04-17 13:31 | 60.92719 | 69.12623 | 6626 ft | 234 kts | 257° |
| 2026-04-17 13:31 | 60.92350 | 69.09380 | 6302 ft | 232 kts | 256° |
| 2026-04-17 13:31 | 60.91979 | 69.06167 | 6020 ft | 230 kts | 256° |
| 2026-04-17 13:32 | 60.91610 | 69.03003 | 5714 ft | 231 kts | 255° |
| 2026-04-17 13:32 | 60.91234 | 68.99784 | 5410 ft | 232 kts | 255° |
| 2026-04-17 13:32 | 60.90855 | 68.96547 | 5097 ft | 233 kts | 254° |
| 2026-04-17 13:32 | 60.90476 | 68.93313 | 4773 ft | 231 kts | 253° |
| 2026-04-17 13:33 | 60.90104 | 68.90134 | 4476 ft | 227 kts | 253° |
| 2026-04-17 13:33 | 60.89738 | 68.86993 | 4171 ft | 225 kts | 253° |
| 2026-04-17 13:33 | 60.89726 | 68.83770 | 3830 ft | 233 kts | 280° |
| 2026-04-17 13:33 | 60.90561 | 68.80858 | 3386 ft | 248 kts | 314° |
| 2026-04-17 13:34 | 60.92105 | 68.79241 | 3104 ft | 251 kts | 341° |
| 2026-04-17 13:34 | 60.93766 | 68.78413 | 3044 ft | 240 kts | 346° |
| 2026-04-17 13:34 | 60.95383 | 68.77665 | 2971 ft | 234 kts | 345° |
| 2026-04-17 13:34 | 60.96967 | 68.77092 | 2617 ft | 237 kts | 0° |
| 2026-04-17 13:35 | 60.98542 | 68.78111 | 2070 ft | 236 kts | 43° |
| 2026-04-17 13:35 | 60.99389 | 68.80522 | 2435 ft | 185 kts | 82° |
| 2026-04-17 13:35 | 60.99594 | 68.83049 | 2515 ft | 176 kts | 89° |
| 2026-04-17 13:35 | 60.99874 | 68.85405 | 2403 ft | 166 kts | 81° |
| 2026-04-17 13:36 | 61.00193 | 68.87639 | 2143 ft | 161 kts | 83° |
| 2026-04-17 13:36 | 61.00453 | 68.89823 | 1902 ft | 148 kts | 83° |
| 2026-04-17 13:36 | 61.00703 | 68.91753 | 1678 ft | 136 kts | 82° |
| 2026-04-17 13:36 | 61.00944 | 68.93629 | 1501 ft | 134 kts | 83° |
| 2026-04-17 13:37 | 61.01178 | 68.95445 | 1302 ft | 129 kts | 82° |
| 2026-04-17 13:37 | 61.01401 | 68.97220 | 1112 ft | 127 kts | 81° |
| 2026-04-17 13:37 | 61.01622 | 68.98983 | 922 ft | 127 kts | 81° |
| 2026-04-17 13:37 | 61.01846 | 69.00755 | 745 ft | 127 kts | 78° |
| 2026-04-17 13:38 | 61.02094 | 69.02532 | 505 ft | 126 kts | 79° |
| 2026-04-17 13:38 | 61.02309 | 69.04284 | 350 ft | 127 kts | 77° |
| 2026-04-17 13:38 | 61.02527 | 69.06049 | 193 ft | 128 kts | 77° |
| 2026-04-17 13:38 | 61.02736 | 69.07688 | 141 ft | 103 kts | 71° |
| 2026-04-17 13:39 | 61.02867 | 69.08710 | 143 ft | 37 kts | 77° |
| 2026-04-17 13:39 | 61.02903 | 69.09008 | 143 ft | 14 kts | 77° |
| 2026-04-17 13:39 | 61.02892 | 69.09143 | 143 ft | 8 kts | 150° |
| 2026-04-17 13:39 | 61.02832 | 69.09185 | 141 ft | 10 kts | 163° |
| 2026-04-17 13:40 | 61.02821 | 69.09193 | 141 ft | 2 kts | 163° |
| 2026-04-17 13:40 | 61.02797 | 69.09206 | 141 ft | 4 kts | 164° |
| 2026-04-17 13:40 | 61.02772 | 69.09233 | 141 ft | 5 kts | 127° |
| 2026-04-17 13:40 | 61.02747 | 69.09303 | 141 ft | 5 kts | 149° |
| 2026-04-17 13:41 | 61.02714 | 69.09331 | 141 ft | 5 kts | 166° |
| 2026-04-17 13:41 | 61.02681 | 69.09332 | 141 ft | 4 kts | 202° |
| 2026-04-17 13:41 | 61.02670 | 69.09298 | 141 ft | 3 kts | 255° |
| 2026-04-17 13:41 | 61.02666 | 69.09261 | 141 ft | 3 kts | 257° |
| 2026-04-17 13:42 | 61.02663 | 69.09243 | 141 ft | 0 kts | 253° |